Portada
METAR-TAF:

METAR-TAF

Aeroports :

Nadi, Fiji

latitud: 17-45S, longitud: 177-27E, altitud: 13 m

Observació

L'informe es va fer fa 1 hora i 11 minuts, a les 04:00 UTC
Vent 13 kt del Sud
Temperatura 28°C
Humitat 62%
Pressió 1012 hPa
Visibilitat 10 km o més
Escasses núvols a una alçada de 3000 ft

METAR: NFFN 210400Z 19013KT 9999 FEW030 28/20 Q1012 NOSIG

Hora: 17:11 (05:11 UTC)

Pronòstic

L'informe es va fer fa 5 hores i 47 minuts, a les 23:24 UTC
Pronòstic vàlid del 21 a les 00 UTC al 21 a les 24 UTC
Vent 12 kt del Sud/Sud-Est
Visibilitat 10 km o més
Escasses núvols a una alçada de 2800 ft
Núvols disperses a una alçada de 5000 ft

TAF: NFFN 202324Z 2100/2124 15012KT 9999 FEW028 SCT050

Observacions i pronòstics meteorològics de més de 4000 aeroports (METAR i TAF).

Les estacions disponibles són els punts grocs i vermells al mapa.

Posi el ratolí al punt desitjat per veure el nom de l'estació.

Feu clic per veure les observacions i els pronòstics meteorològics.

Per canviar el mapa: feu clic els botons verds amb una creu de color negre per apropar; al botó verd amb un guió per allunyar la imatge; o en les fletxes verdes per a mapes adjacents.


METAR-TAF: